createdAt,value
2023-08-17T00:00:21.941Z,22.20
2023-08-17T00:01:26.067Z,22.21
2023-08-17T00:02:28.271Z,22.21
2023-08-17T00:03:30.720Z,22.22
2023-08-17T00:04:33.044Z,22.23
2023-08-17T00:05:35.495Z,22.24
2023-08-17T00:06:37.852Z,22.18
2023-08-17T00:07:40.210Z,22.16
2023-08-17T00:08:43.171Z,22.14
2023-08-17T00:09:46.425Z,22.11
2023-08-17T00:10:48.943Z,22.10
2023-08-17T00:11:51.437Z,22.12
2023-08-17T00:12:56.457Z,22.12
2023-08-17T00:13:58.793Z,22.11
2023-08-17T00:16:03.897Z,22.09
2023-08-17T00:17:06.277Z,22.07
2023-08-17T00:18:09.052Z,22.07
2023-08-17T00:19:11.632Z,22.06
2023-08-17T00:20:16.312Z,22.08
2023-08-17T00:21:18.943Z,22.11
2023-08-17T00:22:22.358Z,22.12
2023-08-17T00:23:24.536Z,22.15
2023-08-17T00:24:27.216Z,22.13
2023-08-17T00:25:29.672Z,22.15
2023-08-17T00:26:32.260Z,22.17
2023-08-17T00:27:35.763Z,22.18
2023-08-17T00:28:38.445Z,22.18
2023-08-17T00:29:42.102Z,22.18
2023-08-17T00:30:45.776Z,22.18
2023-08-17T00:31:48.561Z,22.19
2023-08-17T00:32:50.943Z,22.17
2023-08-17T00:33:55.854Z,22.17
2023-08-17T00:34:58.195Z,22.19
2023-08-17T00:36:00.701Z,22.18
2023-08-17T00:37:03.643Z,22.15
2023-08-17T00:38:06.519Z,22.15
2023-08-17T00:39:09.092Z,22.16
2023-08-17T00:40:12.888Z,22.14
2023-08-17T00:41:15.318Z,22.11
2023-08-17T00:42:17.726Z,22.11
2023-08-17T00:43:20.165Z,21.99
2023-08-17T00:44:22.830Z,21.99
2023-08-17T00:45:25.263Z,22.03
2023-08-17T00:46:28.411Z,22.01
2023-08-17T00:47:31.947Z,21.98
2023-08-17T00:48:34.981Z,21.99
2023-08-17T00:49:37.527Z,22.01
2023-08-17T00:50:41.194Z,21.99
2023-08-17T00:51:44.212Z,22.00
2023-08-17T00:52:46.682Z,22.00
2023-08-17T00:53:49.172Z,21.96
2023-08-17T00:54:52.068Z,21.93
2023-08-17T00:55:54.965Z,21.93
2023-08-17T00:56:57.593Z,21.92
2023-08-17T00:58:02.287Z,21.94
2023-08-17T00:59:06.480Z,21.95
2023-08-17T01:00:12.949Z,21.94
2023-08-17T01:01:15.717Z,21.96
2023-08-17T01:02:19.641Z,21.91
2023-08-17T01:03:23.975Z,21.92
2023-08-17T01:04:26.357Z,21.91
2023-08-17T01:05:30.143Z,21.89
2023-08-17T01:06:32.478Z,21.84
2023-08-17T01:07:35.334Z,21.88
2023-08-17T01:08:40.097Z,21.90
2023-08-17T01:09:43.219Z,21.89
2023-08-17T01:10:55.175Z,21.85
2023-08-17T01:12:17.264Z,21.83
2023-08-17T01:13:25.964Z,21.83
2023-08-17T01:14:40.499Z,21.81
2023-08-17T01:15:49.379Z,21.74
2023-08-17T01:17:13.672Z,21.73
2023-08-17T01:18:25.846Z,21.72
2023-08-17T01:19:28.849Z,21.68
2023-08-17T01:20:32.043Z,21.66
2023-08-17T01:22:56.923Z,21.78
2023-08-17T01:24:02.891Z,21.63
2023-08-17T01:25:05.774Z,21.65
2023-08-17T01:26:08.499Z,21.60
2023-08-17T01:27:10.853Z,21.57
2023-08-17T01:28:13.144Z,21.54
2023-08-17T01:29:17.438Z,21.51
2023-08-17T01:30:20.382Z,21.53
2023-08-17T01:31:36.801Z,21.54
2023-08-17T01:32:57.736Z,21.57
2023-08-17T01:34:03.745Z,21.58
2023-08-17T01:35:09.745Z,21.59
2023-08-17T01:36:15.686Z,21.55
2023-08-17T01:37:22.001Z,21.56
2023-08-17T01:38:27.122Z,21.54
2023-08-17T01:39:33.255Z,21.55
2023-08-17T01:40:36.609Z,21.56
2023-08-17T01:41:41.954Z,21.55
2023-08-17T01:42:44.468Z,21.50
2023-08-17T01:43:48.201Z,21.43
2023-08-17T01:44:52.309Z,21.42
2023-08-17T01:45:55.033Z,21.42
2023-08-17T01:46:57.810Z,21.42
2023-08-17T01:48:00.242Z,21.42
2023-08-17T01:49:02.882Z,21.48
2023-08-17T01:50:07.259Z,21.48
2023-08-17T01:51:11.277Z,21.46
2023-08-17T01:52:13.701Z,21.39
2023-08-17T01:53:16.062Z,21.39
2023-08-17T01:54:18.803Z,21.38
2023-08-17T01:56:35.133Z,21.51
2023-08-17T01:57:37.684Z,21.35
2023-08-17T01:58:41.340Z,21.34
2023-08-17T01:59:43.674Z,21.34
2023-08-17T02:00:46.787Z,21.35
2023-08-17T02:01:49.322Z,21.33
2023-08-17T02:02:51.661Z,21.35
2023-08-17T02:03:54.421Z,21.30
2023-08-17T02:04:56.587Z,21.29
2023-08-17T02:06:01.576Z,21.27
2023-08-17T02:07:04.300Z,21.29
2023-08-17T02:08:07.230Z,21.30
2023-08-17T02:09:09.445Z,21.33
2023-08-17T02:10:12.959Z,21.35
2023-08-17T02:11:15.475Z,21.37
2023-08-17T02:12:18.868Z,21.39
2023-08-17T02:13:21.733Z,21.40
2023-08-17T02:14:24.098Z,21.35
2023-08-17T02:15:26.421Z,21.37
2023-08-17T02:16:28.870Z,21.35
2023-08-17T02:17:31.489Z,21.30
2023-08-17T02:18:35.292Z,21.28
2023-08-17T02:19:38.005Z,21.28
2023-08-17T02:20:40.799Z,21.25
2023-08-17T02:21:43.203Z,21.22
2023-08-17T02:22:45.455Z,21.18
2023-08-17T02:23:47.616Z,21.15
2023-08-17T02:24:49.668Z,21.11
2023-08-17T02:25:51.904Z,21.13
2023-08-17T02:26:56.653Z,21.12
2023-08-17T02:28:01.149Z,21.13
2023-08-17T02:29:03.619Z,21.12
2023-08-17T02:30:08.225Z,21.05
2023-08-17T02:31:11.082Z,21.04
2023-08-17T02:32:13.383Z,21.03
2023-08-17T02:33:16.033Z,20.98
2023-08-17T02:34:18.817Z,20.90
2023-08-17T02:35:21.131Z,20.81
2023-08-17T02:36:23.481Z,20.74
2023-08-17T02:37:26.241Z,20.74
2023-08-17T02:38:28.644Z,20.72
2023-08-17T02:39:30.894Z,20.65
2023-08-17T02:40:33.380Z,20.67
2023-08-17T02:41:35.752Z,20.62
2023-08-17T02:42:40.004Z,20.57
2023-08-17T02:43:42.170Z,20.41
2023-08-17T02:44:44.650Z,20.34
2023-08-17T02:45:47.744Z,20.33
2023-08-17T02:46:50.257Z,20.35
2023-08-17T02:47:52.669Z,20.34
2023-08-17T02:48:55.034Z,20.35
2023-08-17T02:49:57.296Z,20.31
2023-08-17T02:50:59.592Z,20.36
2023-08-17T02:52:02.681Z,20.37
2023-08-17T02:53:06.629Z,20.38
2023-08-17T02:54:09.199Z,20.41
2023-08-17T02:55:11.403Z,20.45
2023-08-17T02:56:13.869Z,20.48
2023-08-17T02:57:16.177Z,20.50
2023-08-17T02:58:18.572Z,20.55
2023-08-17T02:59:20.986Z,20.57
2023-08-17T03:00:23.657Z,20.61
2023-08-17T03:01:26.243Z,20.57
2023-08-17T03:02:28.686Z,20.58
2023-08-17T03:03:31.248Z,20.59
2023-08-17T03:04:34.027Z,20.60
2023-08-17T03:05:36.547Z,20.64
2023-08-17T03:06:38.911Z,20.62
2023-08-17T03:07:41.895Z,20.64
2023-08-17T03:08:44.328Z,20.63
2023-08-17T03:09:47.374Z,20.62
2023-08-17T03:10:50.189Z,20.64
2023-08-17T03:11:54.274Z,20.64
2023-08-17T03:12:56.828Z,20.66
2023-08-17T03:14:02.812Z,20.66
2023-08-17T03:15:07.283Z,20.67
2023-08-17T03:16:11.459Z,20.66
2023-08-17T03:17:13.904Z,20.64
2023-08-17T03:18:16.208Z,20.64
2023-08-17T03:19:18.652Z,20.62
2023-08-17T03:20:22.058Z,20.64
2023-08-17T03:21:24.939Z,20.64
2023-08-17T03:22:27.794Z,20.66
2023-08-17T03:23:30.945Z,20.63
2023-08-17T03:24:33.576Z,20.57
2023-08-17T03:25:36.158Z,20.50
2023-08-17T03:26:38.531Z,20.42
2023-08-17T03:27:42.637Z,20.38
2023-08-17T03:28:45.814Z,20.39
2023-08-17T03:29:48.554Z,20.44
2023-08-17T03:30:50.890Z,20.48
2023-08-17T03:31:55.795Z,20.47
2023-08-17T03:32:57.941Z,20.35
2023-08-17T03:34:01.710Z,20.35
2023-08-17T03:35:05.262Z,20.43
2023-08-17T03:36:08.081Z,20.45
2023-08-17T03:37:10.900Z,20.41
2023-08-17T03:38:14.322Z,20.44
2023-08-17T03:39:16.848Z,20.43
2023-08-17T03:40:19.307Z,20.47
2023-08-17T03:41:24.177Z,20.48
2023-08-17T03:42:26.424Z,20.47
2023-08-17T03:43:29.068Z,20.53
2023-08-17T03:44:32.475Z,20.52
2023-08-17T03:45:34.958Z,20.46
2023-08-17T03:46:38.335Z,20.46
2023-08-17T03:47:40.575Z,20.49
2023-08-17T03:48:42.697Z,20.45
2023-08-17T03:49:45.895Z,20.48
2023-08-17T03:50:50.315Z,20.54
2023-08-17T03:51:52.742Z,20.54
2023-08-17T03:52:55.021Z,20.57
2023-08-17T03:53:58.354Z,20.54
2023-08-17T03:55:00.708Z,20.55
2023-08-17T03:56:03.269Z,20.60
2023-08-17T03:57:05.714Z,20.62
2023-08-17T03:58:08.106Z,20.61
2023-08-17T03:59:10.470Z,20.63
2023-08-17T04:00:16.702Z,20.64
2023-08-17T04:01:18.787Z,20.67
2023-08-17T04:02:21.647Z,20.72
2023-08-17T04:03:23.909Z,20.67
2023-08-17T04:04:26.600Z,20.66
2023-08-17T04:05:29.159Z,20.69
2023-08-17T04:06:31.604Z,20.62
2023-08-17T04:07:34.414Z,20.67
2023-08-17T04:08:39.274Z,20.68
2023-08-17T04:09:45.427Z,20.68
2023-08-17T04:10:47.842Z,20.68
2023-08-17T04:11:50.121Z,20.64
2023-08-17T04:12:52.931Z,20.64
2023-08-17T04:13:55.255Z,20.68
2023-08-17T04:14:59.701Z,20.66
2023-08-17T04:16:02.136Z,20.73
2023-08-17T04:17:04.779Z,20.73
2023-08-17T04:18:07.678Z,20.74
2023-08-17T04:19:10.586Z,20.73
2023-08-17T04:20:13.977Z,20.65
2023-08-17T04:21:16.350Z,20.61
2023-08-17T04:22:18.737Z,20.62
2023-08-17T04:23:22.003Z,20.68
2023-08-17T04:24:24.480Z,20.76
2023-08-17T04:25:26.862Z,20.74
2023-08-17T04:26:29.324Z,20.81
2023-08-17T04:27:31.638Z,20.78
2023-08-17T04:28:34.127Z,20.71
2023-08-17T04:29:37.587Z,20.72
2023-08-17T04:30:41.407Z,20.76
2023-08-17T04:31:44.025Z,20.83
2023-08-17T04:32:49.633Z,20.89
2023-08-17T04:33:53.271Z,20.90
2023-08-17T04:34:55.942Z,20.85
2023-08-17T04:35:59.591Z,20.88
2023-08-17T04:37:02.769Z,20.87
2023-08-17T04:38:05.489Z,20.88
2023-08-17T04:39:08.649Z,20.95
2023-08-17T04:40:12.728Z,21.00
2023-08-17T04:41:16.194Z,21.01
2023-08-17T04:42:20.705Z,21.04
2023-08-17T04:43:23.136Z,21.09
2023-08-17T04:44:26.115Z,21.15
2023-08-17T04:45:28.662Z,21.23
2023-08-17T04:46:31.982Z,21.29
2023-08-17T04:47:34.484Z,21.27
2023-08-17T04:48:36.612Z,21.30
2023-08-17T04:49:39.905Z,21.24
2023-08-17T04:50:43.819Z,21.24
2023-08-17T04:51:48.393Z,21.27
2023-08-17T04:52:50.980Z,21.30
2023-08-17T04:53:54.122Z,21.31
2023-08-17T04:54:56.645Z,21.34
2023-08-17T04:56:00.808Z,21.34
2023-08-17T04:57:05.103Z,21.37
2023-08-17T04:58:07.553Z,21.41
2023-08-17T04:59:10.056Z,21.47
2023-08-17T05:00:14.562Z,21.54
2023-08-17T05:01:19.910Z,21.64
2023-08-17T05:02:23.589Z,21.66
2023-08-17T05:03:33.858Z,21.66
2023-08-17T05:04:31.625Z,21.72
2023-08-17T05:05:35.866Z,21.76
2023-08-17T05:06:40.396Z,21.81
2023-08-17T05:07:42.535Z,21.86
2023-08-17T05:08:46.174Z,21.90
2023-08-17T05:09:48.585Z,21.92
2023-08-17T05:10:51.391Z,21.90
2023-08-17T05:11:54.966Z,21.89
2023-08-17T05:12:57.674Z,21.88
2023-08-17T05:14:02.248Z,21.78
2023-08-17T05:15:06.149Z,21.74
2023-08-17T05:16:09.521Z,21.72
2023-08-17T05:17:12.064Z,21.72
2023-08-17T05:18:15.234Z,21.72
2023-08-17T05:19:18.939Z,21.75
2023-08-17T05:20:21.918Z,21.79
2023-08-17T05:21:25.416Z,21.85
2023-08-17T05:22:28.467Z,21.78
2023-08-17T05:23:30.861Z,21.84
2023-08-17T05:24:33.143Z,21.88
2023-08-17T05:25:35.461Z,21.93
2023-08-17T05:26:38.006Z,21.96
2023-08-17T05:27:41.523Z,22.05
2023-08-17T05:28:45.556Z,22.07
2023-08-17T05:29:47.995Z,22.04
2023-08-17T05:30:51.770Z,22.04
2023-08-17T05:31:54.820Z,22.08
2023-08-17T05:32:57.264Z,22.07
2023-08-17T05:34:00.017Z,22.13
2023-08-17T05:35:02.560Z,22.22
2023-08-17T05:36:05.678Z,22.31
2023-08-17T05:37:08.854Z,22.38
2023-08-17T05:38:11.468Z,22.41
2023-08-17T05:39:13.809Z,22.50
2023-08-17T05:40:17.152Z,22.53
2023-08-17T05:41:19.467Z,22.54
2023-08-17T05:42:21.765Z,22.54
2023-08-17T05:43:24.949Z,22.60
2023-08-17T05:44:27.184Z,22.49
2023-08-17T05:45:30.165Z,22.49
2023-08-17T05:46:33.681Z,22.51
2023-08-17T05:47:35.997Z,22.48
2023-08-17T05:48:38.745Z,22.40
2023-08-17T05:49:41.289Z,22.44
2023-08-17T05:50:43.869Z,22.45
2023-08-17T05:51:47.068Z,22.46
2023-08-17T05:52:49.449Z,22.47
2023-08-17T05:53:51.995Z,22.51
2023-08-17T05:54:54.279Z,22.54
2023-08-17T05:55:56.643Z,22.59
2023-08-17T05:56:59.047Z,22.59
2023-08-17T05:58:02.757Z,22.59
2023-08-17T05:59:06.311Z,22.60
2023-08-17T06:00:14.768Z,22.62
2023-08-17T06:01:18.884Z,22.64
2023-08-17T06:02:21.160Z,22.66
2023-08-17T06:03:24.199Z,22.68
2023-08-17T06:04:26.596Z,22.65
2023-08-17T06:05:30.613Z,22.62
2023-08-17T06:06:33.731Z,22.59
2023-08-17T06:07:36.212Z,22.60
2023-08-17T06:08:38.477Z,22.64
2023-08-17T06:09:41.326Z,22.67
2023-08-17T06:10:45.129Z,22.63
2023-08-17T06:11:47.397Z,22.69
2023-08-17T06:12:49.466Z,22.73
2023-08-17T06:13:51.887Z,22.78
2023-08-17T06:14:54.351Z,22.81
2023-08-17T06:16:00.208Z,22.83
2023-08-17T06:17:02.454Z,22.85
2023-08-17T06:18:05.385Z,22.89
2023-08-17T06:19:08.009Z,22.90
2023-08-17T06:20:12.503Z,22.95
2023-08-17T06:21:15.292Z,22.97
2023-08-17T06:22:18.726Z,22.97
2023-08-17T06:23:21.564Z,22.98
2023-08-17T06:24:24.710Z,23.02
2023-08-17T06:25:27.519Z,23.05
2023-08-17T06:26:30.430Z,23.11
2023-08-17T06:27:34.131Z,23.10
2023-08-17T06:28:36.432Z,23.16
2023-08-17T06:29:39.637Z,23.20
2023-08-17T06:30:42.717Z,23.22
2023-08-17T06:31:47.301Z,23.25
2023-08-17T06:32:52.182Z,23.31
2023-08-17T06:33:55.849Z,23.32
2023-08-17T06:34:59.548Z,23.34
2023-08-17T06:36:01.887Z,23.36
2023-08-17T06:37:04.766Z,23.39
2023-08-17T06:38:07.148Z,23.43
2023-08-17T06:39:09.730Z,23.47
2023-08-17T06:40:14.321Z,23.51
2023-08-17T06:41:17.657Z,23.54
2023-08-17T06:42:20.001Z,23.57
2023-08-17T06:43:23.382Z,23.59
2023-08-17T06:44:25.920Z,23.60
2023-08-17T06:45:29.528Z,23.63
2023-08-17T06:46:32.511Z,23.64
2023-08-17T06:47:34.926Z,23.61
2023-08-17T06:48:36.941Z,23.65
2023-08-17T06:49:39.282Z,23.69
2023-08-17T06:50:42.140Z,23.72
2023-08-17T06:51:46.519Z,23.77
2023-08-17T06:52:49.136Z,23.82
2023-08-17T06:53:51.543Z,23.87
2023-08-17T06:54:53.730Z,23.81
2023-08-17T06:55:56.285Z,23.78
2023-08-17T06:56:58.929Z,23.83
2023-08-17T06:58:01.742Z,23.88
2023-08-17T06:59:04.546Z,23.91
2023-08-17T07:00:09.354Z,23.97
2023-08-17T07:01:11.547Z,23.96
2023-08-17T07:02:13.704Z,23.96
2023-08-17T07:03:16.766Z,24.00
2023-08-17T07:04:19.079Z,24.02
2023-08-17T07:05:21.614Z,24.04
2023-08-17T07:06:25.171Z,24.07
2023-08-17T07:07:27.981Z,24.15
2023-08-17T07:08:30.335Z,24.21
2023-08-17T07:09:33.748Z,24.27
2023-08-17T07:10:36.340Z,24.30
2023-08-17T07:11:39.795Z,24.36
2023-08-17T07:12:42.681Z,24.39
2023-08-17T07:13:44.919Z,24.43
2023-08-17T07:14:47.273Z,24.40
2023-08-17T07:15:49.468Z,24.43
2023-08-17T07:16:52.038Z,24.45
2023-08-17T07:17:54.868Z,24.52
2023-08-17T07:18:57.877Z,24.57
2023-08-17T07:20:15.739Z,24.55
2023-08-17T07:21:04.899Z,24.54
2023-08-17T07:22:07.315Z,24.52
2023-08-17T07:23:09.588Z,24.54
2023-08-17T07:24:14.063Z,24.57
2023-08-17T07:25:18.647Z,24.58
2023-08-17T07:26:21.321Z,24.63
2023-08-17T07:27:24.013Z,24.68
2023-08-17T07:28:27.598Z,24.74
2023-08-17T07:29:29.966Z,24.82
2023-08-17T07:30:32.362Z,24.88
2023-08-17T07:31:37.244Z,24.86
2023-08-17T07:32:39.680Z,24.86
2023-08-17T07:33:41.910Z,24.92
2023-08-17T07:34:44.471Z,24.94
2023-08-17T07:35:46.931Z,24.94
2023-08-17T07:36:50.633Z,24.99
2023-08-17T07:38:03.991Z,25.04
2023-08-17T07:38:58.013Z,25.04
2023-08-17T07:40:04.314Z,25.04
2023-08-17T07:41:06.850Z,25.06
2023-08-17T07:42:09.345Z,25.10
2023-08-17T07:43:11.593Z,25.13
2023-08-17T07:44:13.761Z,25.17
2023-08-17T07:45:16.410Z,25.18
2023-08-17T07:46:19.734Z,25.20
2023-08-17T07:47:22.213Z,25.14
2023-08-17T07:48:25.242Z,25.14
2023-08-17T07:49:32.583Z,25.14
2023-08-17T07:50:34.327Z,25.18
2023-08-17T07:51:36.591Z,25.25
2023-08-17T07:52:40.034Z,25.28
2023-08-17T07:53:42.530Z,25.32
2023-08-17T07:54:46.859Z,25.36
2023-08-17T07:55:50.657Z,25.36
2023-08-17T07:56:54.987Z,25.41
2023-08-17T07:57:57.377Z,25.46
2023-08-17T07:58:59.675Z,25.48
2023-08-17T08:00:01.920Z,25.53
2023-08-17T08:01:06.298Z,25.48
2023-08-17T08:02:10.665Z,25.50
2023-08-17T08:03:15.671Z,25.49
2023-08-17T08:04:17.865Z,25.50
2023-08-17T08:05:20.631Z,25.57
2023-08-17T08:06:24.626Z,25.58
2023-08-17T08:07:27.092Z,25.62
2023-08-17T08:08:30.604Z,25.71
2023-08-17T08:09:33.028Z,25.79
2023-08-17T08:10:35.474Z,25.82
2023-08-17T08:11:37.749Z,25.85
2023-08-17T08:12:40.816Z,25.88
2023-08-17T08:13:43.132Z,25.90
2023-08-17T08:14:46.307Z,25.97
2023-08-17T08:15:48.741Z,26.01
2023-08-17T08:16:51.566Z,26.02
2023-08-17T08:17:54.836Z,26.08
2023-08-17T08:18:57.689Z,26.15
2023-08-17T08:20:00.154Z,26.20
2023-08-17T08:21:02.473Z,26.26
2023-08-17T08:22:04.867Z,26.24
2023-08-17T08:23:07.091Z,26.28
2023-08-17T08:24:17.821Z,26.36
2023-08-17T08:25:14.514Z,26.41
2023-08-17T08:26:16.822Z,26.52
2023-08-17T08:27:19.287Z,26.63
2023-08-17T08:28:22.548Z,26.72
2023-08-17T08:29:24.752Z,26.83
2023-08-17T08:30:27.202Z,26.94
2023-08-17T08:31:29.466Z,27.07
2023-08-17T08:32:31.764Z,27.06
2023-08-17T08:33:35.160Z,27.03
2023-08-17T08:34:37.798Z,26.95
2023-08-17T08:35:40.928Z,26.90
2023-08-17T08:36:43.319Z,26.96
2023-08-17T08:37:45.470Z,27.00
2023-08-17T08:38:48.333Z,26.86
2023-08-17T08:39:52.596Z,26.83
2023-08-17T08:40:55.386Z,26.77
2023-08-17T08:41:59.210Z,26.76
2023-08-17T08:43:01.620Z,26.77
2023-08-17T08:44:05.146Z,26.74
2023-08-17T08:45:08.662Z,26.70
2023-08-17T08:46:13.110Z,26.63
2023-08-17T08:47:17.871Z,26.49
2023-08-17T08:48:23.649Z,26.41
2023-08-17T08:49:28.314Z,26.44
2023-08-17T08:50:32.841Z,26.53
2023-08-17T08:51:40.896Z,26.59
2023-08-17T08:52:46.845Z,26.54
2023-08-17T08:53:54.672Z,26.53
2023-08-17T08:54:59.449Z,26.57
2023-08-17T08:56:03.996Z,26.62
2023-08-17T08:57:10.188Z,26.73
2023-08-17T08:58:13.445Z,26.85
2023-08-17T08:59:18.349Z,26.81
2023-08-17T09:00:22.838Z,26.87
2023-08-17T09:01:26.638Z,26.77
2023-08-17T09:02:30.662Z,26.76
2023-08-17T09:03:33.702Z,26.80
2023-08-17T09:04:36.646Z,26.78
2023-08-17T09:05:41.451Z,26.78
2023-08-17T09:06:44.758Z,26.78
2023-08-17T09:07:49.411Z,26.82
2023-08-17T09:08:53.313Z,26.89
2023-08-17T09:09:56.893Z,27.04
2023-08-17T09:11:01.602Z,27.15
2023-08-17T09:12:06.255Z,27.17
2023-08-17T09:13:09.922Z,27.19
2023-08-17T09:14:12.435Z,27.20
2023-08-17T09:15:14.837Z,27.27
2023-08-17T09:16:19.011Z,27.35
2023-08-17T09:17:25.364Z,27.42
2023-08-17T09:18:27.849Z,27.50
2023-08-17T09:19:34.732Z,27.59
2023-08-17T09:20:47.136Z,27.62
2023-08-17T09:21:50.782Z,27.61
2023-08-17T09:22:54.642Z,27.63
2023-08-17T09:24:00.403Z,27.58
2023-08-17T09:25:03.265Z,27.56
2023-08-17T09:26:10.277Z,27.45
2023-08-17T09:27:14.313Z,27.44
2023-08-17T09:28:20.675Z,27.52
2023-08-17T09:29:26.243Z,27.56
2023-08-17T09:30:29.111Z,27.60
2023-08-17T09:31:33.309Z,27.62
2023-08-17T09:32:35.755Z,27.60
2023-08-17T09:33:38.816Z,27.59
2023-08-17T09:34:49.231Z,27.56
2023-08-17T09:35:51.497Z,27.55
2023-08-17T09:36:53.808Z,27.48
2023-08-17T09:37:55.881Z,27.37
2023-08-17T09:38:58.431Z,27.30
2023-08-17T09:40:01.596Z,27.30
2023-08-17T09:41:05.635Z,27.35
2023-08-17T09:42:07.916Z,27.41
2023-08-17T09:43:11.593Z,27.49
2023-08-17T09:44:14.462Z,27.54
2023-08-17T09:45:19.863Z,27.57
2023-08-17T09:46:22.341Z,27.37
2023-08-17T09:47:25.132Z,27.37
2023-08-17T09:48:33.046Z,27.34
2023-08-17T09:49:36.463Z,27.32
2023-08-17T09:50:39.072Z,27.31
2023-08-17T09:51:45.152Z,27.31
2023-08-17T09:52:51.318Z,27.23
2023-08-17T09:54:00.125Z,27.36
2023-08-17T09:55:08.123Z,27.49
2023-08-17T09:57:22.664Z,27.70
2023-08-17T09:58:21.798Z,27.77
2023-08-17T09:59:25.408Z,27.73
2023-08-17T10:00:30.254Z,27.81
2023-08-17T10:01:33.954Z,27.85
2023-08-17T10:02:36.396Z,27.82
2023-08-17T10:03:42.848Z,27.82
2023-08-17T10:04:47.648Z,27.83
2023-08-17T10:05:55.765Z,27.91
2023-08-17T10:07:05.626Z,27.86
2023-08-17T10:08:08.622Z,27.86
2023-08-17T10:09:13.974Z,27.80
2023-08-17T10:10:21.635Z,27.90
2023-08-17T10:11:24.856Z,27.96
2023-08-17T10:12:30.717Z,28.04
2023-08-17T10:13:39.929Z,28.11
2023-08-17T10:14:48.354Z,28.15
2023-08-17T10:15:54.219Z,28.20
2023-08-17T10:17:07.375Z,28.23
2023-08-17T10:18:22.614Z,28.18
2023-08-17T10:19:45.088Z,28.16
2023-08-17T10:20:51.633Z,28.20
2023-08-17T10:22:19.876Z,28.09
2023-08-17T10:23:24.892Z,27.97
2023-08-17T10:24:29.075Z,27.89
2023-08-17T10:25:32.745Z,27.83
2023-08-17T10:26:35.542Z,27.76
2023-08-17T10:27:38.385Z,27.82
2023-08-17T10:28:41.894Z,27.90
2023-08-17T10:29:45.631Z,27.96
2023-08-17T10:30:48.950Z,27.94
2023-08-17T10:31:52.259Z,28.02
2023-08-17T10:32:55.447Z,28.05
2023-08-17T10:33:59.007Z,28.17
2023-08-17T10:35:03.031Z,28.31
2023-08-17T10:36:07.615Z,28.28
2023-08-17T10:37:13.148Z,28.36
2023-08-17T10:38:18.473Z,28.37
2023-08-17T10:39:26.034Z,28.52
2023-08-17T10:40:29.018Z,28.62
2023-08-17T10:41:32.059Z,28.74
2023-08-17T10:42:37.857Z,28.88
2023-08-17T10:43:58.685Z,28.97
2023-08-17T10:45:03.638Z,29.06
2023-08-17T10:46:20.595Z,28.88
2023-08-17T10:47:36.441Z,28.79
2023-08-17T10:48:37.957Z,28.77
2023-08-17T10:49:43.164Z,28.61
2023-08-17T10:51:01.290Z,28.57
2023-08-17T10:52:06.239Z,28.51
2023-08-17T10:53:13.170Z,28.51
2023-08-17T10:54:15.640Z,28.51
2023-08-17T10:55:21.004Z,28.56
2023-08-17T10:56:28.073Z,28.58
2023-08-17T10:57:39.106Z,28.48
2023-08-17T10:58:43.899Z,28.48
2023-08-17T10:59:47.317Z,28.50
2023-08-17T11:00:53.480Z,28.52
2023-08-17T11:01:56.287Z,28.53
2023-08-17T11:03:01.650Z,28.57
2023-08-17T11:04:16.732Z,28.59
2023-08-17T11:05:40.642Z,28.65
2023-08-17T11:06:44.994Z,28.74
2023-08-17T11:07:48.376Z,28.87
2023-08-17T11:08:56.318Z,29.02
2023-08-17T11:09:59.504Z,28.84
2023-08-17T11:11:07.662Z,28.94
2023-08-17T11:12:13.512Z,29.04
2023-08-17T11:13:15.938Z,29.20
2023-08-17T11:14:18.747Z,29.40
2023-08-17T11:15:20.951Z,29.61
2023-08-17T11:16:23.760Z,29.73
2023-08-17T11:17:26.779Z,29.77
2023-08-17T11:18:29.414Z,29.75
2023-08-17T11:19:31.728Z,29.71
2023-08-17T11:20:36.096Z,29.78
2023-08-17T11:21:39.671Z,29.83
2023-08-17T11:22:43.143Z,29.69
2023-08-17T11:23:45.564Z,29.77
2023-08-17T11:24:49.124Z,29.75
2023-08-17T11:25:53.361Z,29.78
2023-08-17T11:26:57.908Z,29.85
2023-08-17T11:28:01.062Z,29.95
2023-08-17T11:29:04.046Z,30.06
2023-08-17T11:30:08.516Z,30.11
2023-08-17T11:31:13.876Z,30.20
2023-08-17T11:32:20.010Z,30.11
2023-08-17T11:33:22.489Z,30.22
2023-08-17T11:34:26.050Z,30.33
2023-08-17T11:35:28.269Z,30.33
2023-08-17T11:36:30.553Z,30.27
2023-08-17T11:37:33.350Z,30.11
2023-08-17T11:38:39.103Z,30.23
2023-08-17T11:39:42.657Z,30.33
2023-08-17T11:40:45.633Z,30.61
2023-08-17T11:41:50.307Z,30.70
2023-08-17T11:42:52.810Z,30.82
2023-08-17T11:43:56.546Z,30.95
2023-08-17T11:44:59.297Z,30.95
2023-08-17T11:46:02.572Z,31.09
2023-08-17T11:47:06.825Z,31.20
2023-08-17T11:48:10.069Z,31.23
2023-08-17T11:49:13.804Z,31.23
2023-08-17T11:50:21.339Z,31.19
2023-08-17T11:51:31.637Z,31.32
2023-08-17T11:52:34.634Z,31.41
2023-08-17T11:53:39.523Z,31.40
2023-08-17T11:54:43.334Z,31.37
2023-08-17T11:55:45.648Z,31.47
2023-08-17T11:56:49.260Z,31.56
2023-08-17T11:57:51.636Z,31.62
2023-08-17T11:58:53.970Z,31.55
2023-08-17T11:59:57.520Z,31.60
2023-08-17T12:01:01.279Z,31.62
2023-08-17T12:02:03.633Z,31.62
2023-08-17T12:03:07.523Z,31.58
2023-08-17T12:04:10.094Z,31.59
2023-08-17T12:05:12.293Z,31.63
2023-08-17T12:06:17.173Z,31.79
2023-08-17T12:07:20.282Z,31.85
2023-08-17T12:08:23.542Z,31.98
2023-08-17T12:09:26.520Z,31.93
2023-08-17T12:10:30.539Z,31.88
2023-08-17T12:11:33.546Z,31.68
2023-08-17T12:12:41.444Z,31.50
2023-08-17T12:13:46.714Z,31.18
2023-08-17T12:14:49.813Z,31.40
2023-08-17T12:15:53.243Z,31.55
2023-08-17T12:16:57.033Z,31.42
2023-08-17T12:18:04.663Z,31.48
2023-08-17T12:19:08.109Z,31.48
2023-08-17T12:20:18.802Z,31.62
2023-08-17T12:21:24.038Z,31.75
2023-08-17T12:22:27.967Z,31.79
2023-08-17T12:23:34.594Z,31.68
2023-08-17T12:24:38.297Z,31.78
2023-08-17T12:25:40.623Z,31.99
2023-08-17T12:26:48.717Z,32.03
2023-08-17T12:27:52.451Z,31.92
2023-08-17T12:28:54.950Z,31.54
2023-08-17T12:29:57.466Z,31.18
2023-08-17T12:31:04.201Z,31.24
2023-08-17T12:32:08.013Z,31.47
2023-08-17T12:33:10.562Z,31.72
2023-08-17T12:34:13.501Z,31.92
2023-08-17T12:35:15.773Z,32.05
2023-08-17T12:36:19.299Z,32.14
2023-08-17T12:37:22.056Z,32.22
2023-08-17T12:38:25.516Z,32.15
2023-08-17T12:39:28.926Z,32.37
2023-08-17T12:40:31.303Z,32.37
2023-08-17T12:41:33.517Z,32.43
2023-08-17T12:42:35.757Z,32.58
2023-08-17T12:43:39.325Z,32.68
2023-08-17T12:44:42.267Z,32.80
2023-08-17T12:45:45.586Z,32.83
2023-08-17T12:46:48.114Z,32.95
2023-08-17T12:47:52.239Z,33.06
2023-08-17T12:48:55.197Z,33.16
2023-08-17T12:49:57.811Z,33.23
2023-08-17T12:51:02.782Z,33.26
2023-08-17T12:52:05.827Z,32.62
2023-08-17T12:53:07.997Z,32.21
2023-08-17T12:54:10.202Z,32.11
2023-08-17T12:55:13.337Z,32.13
2023-08-17T12:56:16.902Z,32.10
2023-08-17T12:57:20.334Z,32.32
2023-08-17T12:58:22.893Z,32.41
2023-08-17T12:59:25.330Z,32.54
2023-08-17T13:00:28.736Z,32.61
2023-08-17T13:01:31.056Z,32.73
2023-08-17T13:02:33.890Z,32.86
2023-08-17T13:03:37.318Z,33.01
2023-08-17T13:04:40.847Z,33.04
2023-08-17T13:05:43.119Z,33.15
2023-08-17T13:06:49.860Z,32.96
2023-08-17T13:07:50.565Z,32.84
2023-08-17T13:08:54.155Z,33.06
2023-08-17T13:09:56.384Z,33.17
2023-08-17T13:11:00.981Z,33.29
2023-08-17T13:12:04.125Z,33.49
2023-08-17T13:13:06.671Z,33.64
2023-08-17T13:14:09.437Z,33.77
2023-08-17T13:15:12.126Z,33.87
2023-08-17T13:16:14.876Z,33.92
2023-08-17T13:17:18.988Z,33.96
2023-08-17T13:18:21.841Z,34.00
2023-08-17T13:19:24.140Z,33.98
2023-08-17T13:20:26.561Z,33.97
2023-08-17T13:21:29.162Z,33.97
2023-08-17T13:22:31.591Z,34.06
2023-08-17T13:23:35.353Z,34.03
2023-08-17T13:24:38.392Z,34.03
2023-08-17T13:25:40.598Z,33.69
2023-08-17T13:26:43.917Z,33.87
2023-08-17T13:27:47.132Z,34.05
2023-08-17T13:28:49.402Z,34.20
2023-08-17T13:29:51.629Z,34.30
2023-08-17T13:30:54.038Z,34.38
2023-08-17T13:31:56.248Z,34.49
2023-08-17T13:32:58.774Z,34.54
2023-08-17T13:34:01.030Z,34.34
2023-08-17T13:35:04.422Z,34.37
2023-08-17T13:36:07.825Z,34.54
2023-08-17T13:37:10.508Z,34.67
2023-08-17T13:38:13.371Z,34.81
2023-08-17T13:39:16.390Z,34.93
2023-08-17T13:40:20.030Z,35.11
2023-08-17T13:41:24.497Z,35.24
2023-08-17T13:42:27.807Z,35.30
2023-08-17T13:43:31.260Z,35.22
2023-08-17T13:44:33.528Z,35.12
2023-08-17T13:45:36.960Z,34.97